sensor_id;sensor_type;location;lat;lon;timestamp;P1;durP1;ratioP1;P2;durP2;ratioP2
12114;SDS011;6121;49.810;6.418;2023-08-07T00:00:46;15.77;;;5.97;;
12114;SDS011;6121;49.810;6.418;2023-08-07T00:03:12;17.40;;;6.38;;
12114;SDS011;6121;49.810;6.418;2023-08-07T00:05:49;15.45;;;5.72;;
12114;SDS011;6121;49.810;6.418;2023-08-07T00:08:18;16.48;;;6.00;;
12114;SDS011;6121;49.810;6.418;2023-08-07T00:10:44;17.23;;;6.22;;
12114;SDS011;6121;49.810;6.418;2023-08-07T00:13:10;19.05;;;6.78;;
12114;SDS011;6121;49.810;6.418;2023-08-07T00:15:38;14.75;;;5.40;;
12114;SDS011;6121;49.810;6.418;2023-08-07T00:18:04;17.25;;;6.57;;
12114;SDS011;6121;49.810;6.418;2023-08-07T00:20:30;15.55;;;5.70;;
12114;SDS011;6121;49.810;6.418;2023-08-07T00:22:56;19.13;;;6.97;;
12114;SDS011;6121;49.810;6.418;2023-08-07T00:25:22;16.25;;;5.85;;
12114;SDS011;6121;49.810;6.418;2023-08-07T00:27:48;16.13;;;5.88;;
12114;SDS011;6121;49.810;6.418;2023-08-07T00:30:14;18.50;;;6.70;;
12114;SDS011;6121;49.810;6.418;2023-08-07T00:32:40;15.20;;;5.70;;
12114;SDS011;6121;49.810;6.418;2023-08-07T00:35:06;17.43;;;6.47;;
12114;SDS011;6121;49.810;6.418;2023-08-07T00:37:33;16.75;;;6.07;;
12114;SDS011;6121;49.810;6.418;2023-08-07T00:40:01;16.83;;;6.38;;
12114;SDS011;6121;49.810;6.418;2023-08-07T00:42:28;15.43;;;5.68;;
12114;SDS011;6121;49.810;6.418;2023-08-07T00:44:53;16.67;;;6.07;;
12114;SDS011;6121;49.810;6.418;2023-08-07T00:47:19;16.70;;;6.10;;
12114;SDS011;6121;49.810;6.418;2023-08-07T00:49:45;16.00;;;5.78;;
12114;SDS011;6121;49.810;6.418;2023-08-07T00:52:13;18.55;;;6.78;;
12114;SDS011;6121;49.810;6.418;2023-08-07T00:54:38;15.27;;;5.68;;
12114;SDS011;6121;49.810;6.418;2023-08-07T00:57:09;19.05;;;6.97;;
12114;SDS011;6121;49.810;6.418;2023-08-07T00:59:37;15.57;;;5.70;;
12114;SDS011;6121;49.810;6.418;2023-08-07T01:02:03;19.75;;;7.25;;
12114;SDS011;6121;49.810;6.418;2023-08-07T01:04:30;16.70;;;6.23;;
12114;SDS011;6121;49.810;6.418;2023-08-07T01:06:56;16.53;;;6.20;;
12114;SDS011;6121;49.810;6.418;2023-08-07T01:09:24;17.63;;;6.28;;
12114;SDS011;6121;49.810;6.418;2023-08-07T01:14:36;15.77;;;5.88;;
12114;SDS011;6121;49.810;6.418;2023-08-07T01:17:06;21.03;;;7.63;;
12114;SDS011;6121;49.810;6.418;2023-08-07T01:19:39;11.35;;;5.00;;
12114;SDS011;6121;49.810;6.418;2023-08-07T01:22:13;15.80;;;6.67;;
12114;SDS011;6121;49.810;6.418;2023-08-07T01:24:45;13.23;;;5.65;;
12114;SDS011;6121;49.810;6.418;2023-08-07T01:35:01;12.80;;;5.63;;
12114;SDS011;6121;49.810;6.418;2023-08-07T01:37:30;12.30;;;5.25;;
12114;SDS011;6121;49.810;6.418;2023-08-07T01:40:00;12.70;;;5.63;;
12114;SDS011;6121;49.810;6.418;2023-08-07T01:42:29;12.95;;;5.63;;
12114;SDS011;6121;49.810;6.418;2023-08-07T01:44:55;12.55;;;5.22;;
12114;SDS011;6121;49.810;6.418;2023-08-07T01:47:21;13.67;;;6.10;;
12114;SDS011;6121;49.810;6.418;2023-08-07T01:49:47;13.97;;;5.83;;
12114;SDS011;6121;49.810;6.418;2023-08-07T01:52:12;15.77;;;6.97;;
12114;SDS011;6121;49.810;6.418;2023-08-07T01:54:38;13.23;;;5.77;;
12114;SDS011;6121;49.810;6.418;2023-08-07T01:57:04;16.60;;;6.97;;
12114;SDS011;6121;49.810;6.418;2023-08-07T01:59:30;13.05;;;5.88;;
12114;SDS011;6121;49.810;6.418;2023-08-07T02:01:56;20.15;;;8.38;;
12114;SDS011;6121;49.810;6.418;2023-08-07T02:04:22;16.77;;;7.35;;
12114;SDS011;6121;49.810;6.418;2023-08-07T02:06:48;14.32;;;6.38;;
12114;SDS011;6121;49.810;6.418;2023-08-07T02:09:13;15.35;;;6.63;;
12114;SDS011;6121;49.810;6.418;2023-08-07T02:11:39;13.77;;;5.95;;
12114;SDS011;6121;49.810;6.418;2023-08-07T02:14:05;14.35;;;6.30;;
12114;SDS011;6121;49.810;6.418;2023-08-07T02:16:31;15.13;;;6.57;;
12114;SDS011;6121;49.810;6.418;2023-08-07T02:18:57;12.98;;;5.55;;
12114;SDS011;6121;49.810;6.418;2023-08-07T02:21:22;15.73;;;6.82;;
12114;SDS011;6121;49.810;6.418;2023-08-07T02:23:48;13.65;;;5.88;;
12114;SDS011;6121;49.810;6.418;2023-08-07T02:26:14;14.43;;;6.32;;
12114;SDS011;6121;49.810;6.418;2023-08-07T02:28:40;12.18;;;5.18;;
12114;SDS011;6121;49.810;6.418;2023-08-07T02:31:06;13.10;;;5.80;;
12114;SDS011;6121;49.810;6.418;2023-08-07T02:33:31;14.65;;;6.30;;
12114;SDS011;6121;49.810;6.418;2023-08-07T02:35:58;13.45;;;5.90;;
12114;SDS011;6121;49.810;6.418;2023-08-07T02:38:24;15.98;;;7.00;;
12114;SDS011;6121;49.810;6.418;2023-08-07T02:40:50;12.25;;;5.50;;
12114;SDS011;6121;49.810;6.418;2023-08-07T02:43:16;14.15;;;6.20;;
12114;SDS011;6121;49.810;6.418;2023-08-07T02:45:42;10.43;;;4.78;;
12114;SDS011;6121;49.810;6.418;2023-08-07T02:48:08;13.60;;;5.93;;
12114;SDS011;6121;49.810;6.418;2023-08-07T02:50:34;14.63;;;6.60;;
12114;SDS011;6121;49.810;6.418;2023-08-07T02:53:01;13.15;;;5.68;;
12114;SDS011;6121;49.810;6.418;2023-08-07T02:55:27;15.30;;;6.70;;
12114;SDS011;6121;49.810;6.418;2023-08-07T02:57:53;11.75;;;5.18;;
12114;SDS011;6121;49.810;6.418;2023-08-07T03:00:19;15.40;;;6.70;;
12114;SDS011;6121;49.810;6.418;2023-08-07T03:02:45;12.63;;;5.67;;
12114;SDS011;6121;49.810;6.418;2023-08-07T03:05:11;13.85;;;6.10;;
12114;SDS011;6121;49.810;6.418;2023-08-07T03:07:37;15.75;;;6.97;;
12114;SDS011;6121;49.810;6.418;2023-08-07T03:10:21;13.77;;;6.10;;
12114;SDS011;6121;49.810;6.418;2023-08-07T03:12:47;13.10;;;5.77;;
12114;SDS011;6121;49.810;6.418;2023-08-07T03:15:13;13.50;;;5.97;;
12114;SDS011;6121;49.810;6.418;2023-08-07T03:17:39;15.80;;;7.03;;
12114;SDS011;6121;49.810;6.418;2023-08-07T03:20:05;11.65;;;5.40;;
12114;SDS011;6121;49.810;6.418;2023-08-07T03:22:31;15.73;;;6.80;;
12114;SDS011;6121;49.810;6.418;2023-08-07T03:24:57;11.67;;;4.97;;
12114;SDS011;6121;49.810;6.418;2023-08-07T03:27:23;13.57;;;6.15;;
12114;SDS011;6121;49.810;6.418;2023-08-07T03:29:49;12.82;;;5.68;;
12114;SDS011;6121;49.810;6.418;2023-08-07T03:32:15;16.23;;;7.07;;
12114;SDS011;6121;49.810;6.418;2023-08-07T03:34:41;14.85;;;6.47;;
12114;SDS011;6121;49.810;6.418;2023-08-07T03:37:08;11.90;;;5.30;;
12114;SDS011;6121;49.810;6.418;2023-08-07T03:39:34;16.25;;;7.00;;
12114;SDS011;6121;49.810;6.418;2023-08-07T03:41:59;14.05;;;6.25;;
12114;SDS011;6121;49.810;6.418;2023-08-07T03:44:26;16.27;;;7.22;;
12114;SDS011;6121;49.810;6.418;2023-08-07T03:46:51;13.18;;;5.95;;
12114;SDS011;6121;49.810;6.418;2023-08-07T03:49:21;15.10;;;6.53;;
12114;SDS011;6121;49.810;6.418;2023-08-07T03:51:49;13.47;;;5.97;;
12114;SDS011;6121;49.810;6.418;2023-08-07T03:54:15;14.73;;;6.43;;
12114;SDS011;6121;49.810;6.418;2023-08-07T03:56:41;13.88;;;6.20;;
12114;SDS011;6121;49.810;6.418;2023-08-07T03:59:07;11.77;;;5.45;;
12114;SDS011;6121;49.810;6.418;2023-08-07T04:01:33;14.13;;;6.60;;
12114;SDS011;6121;49.810;6.418;2023-08-07T04:03:59;12.10;;;5.53;;
12114;SDS011;6121;49.810;6.418;2023-08-07T04:06:25;17.10;;;7.78;;
12114;SDS011;6121;49.810;6.418;2023-08-07T04:08:52;13.25;;;5.97;;
12114;SDS011;6121;49.810;6.418;2023-08-07T04:11:18;13.85;;;6.13;;
12114;SDS011;6121;49.810;6.418;2023-08-07T04:13:43;15.73;;;7.18;;
12114;SDS011;6121;49.810;6.418;2023-08-07T04:16:09;14.35;;;6.35;;
12114;SDS011;6121;49.810;6.418;2023-08-07T04:18:35;13.68;;;6.22;;
12114;SDS011;6121;49.810;6.418;2023-08-07T04:21:02;14.10;;;6.18;;
12114;SDS011;6121;49.810;6.418;2023-08-07T04:23:28;15.23;;;6.87;;
12114;SDS011;6121;49.810;6.418;2023-08-07T04:25:54;13.57;;;6.20;;
12114;SDS011;6121;49.810;6.418;2023-08-07T04:28:20;13.00;;;6.05;;
12114;SDS011;6121;49.810;6.418;2023-08-07T04:30:48;24.30;;;10.40;;
12114;SDS011;6121;49.810;6.418;2023-08-07T04:33:18;19.60;;;8.68;;
12114;SDS011;6121;49.810;6.418;2023-08-07T04:35:45;23.63;;;10.10;;
12114;SDS011;6121;49.810;6.418;2023-08-07T04:38:14;19.77;;;8.60;;
12114;SDS011;6121;49.810;6.418;2023-08-07T04:40:47;24.60;;;10.52;;
12114;SDS011;6121;49.810;6.418;2023-08-07T04:43:14;21.90;;;9.48;;
12114;SDS011;6121;49.810;6.418;2023-08-07T04:45:42;22.85;;;10.05;;
12114;SDS011;6121;49.810;6.418;2023-08-07T04:48:10;18.37;;;8.00;;
12114;SDS011;6121;49.810;6.418;2023-08-07T04:50:36;22.20;;;9.63;;
12114;SDS011;6121;49.810;6.418;2023-08-07T04:53:06;20.75;;;9.02;;
12114;SDS011;6121;49.810;6.418;2023-08-07T04:55:32;22.88;;;9.95;;
12114;SDS011;6121;49.810;6.418;2023-08-07T04:57:58;23.00;;;9.88;;
12114;SDS011;6121;49.810;6.418;2023-08-07T05:00:24;21.48;;;9.18;;
12114;SDS011;6121;49.810;6.418;2023-08-07T05:02:50;23.95;;;10.40;;
12114;SDS011;6121;49.810;6.418;2023-08-07T05:05:17;19.45;;;8.32;;
12114;SDS011;6121;49.810;6.418;2023-08-07T05:07:46;23.40;;;10.37;;
12114;SDS011;6121;49.810;6.418;2023-08-07T05:10:15;23.00;;;9.98;;
12114;SDS011;6121;49.810;6.418;2023-08-07T05:12:40;21.48;;;9.52;;
12114;SDS011;6121;49.810;6.418;2023-08-07T05:15:06;18.45;;;8.15;;
12114;SDS011;6121;49.810;6.418;2023-08-07T05:17:32;18.05;;;7.95;;
12114;SDS011;6121;49.810;6.418;2023-08-07T05:19:58;17.93;;;8.20;;
12114;SDS011;6121;49.810;6.418;2023-08-07T05:22:24;25.63;;;11.03;;
12114;SDS011;6121;49.810;6.418;2023-08-07T05:24:50;25.80;;;11.17;;
12114;SDS011;6121;49.810;6.418;2023-08-07T05:27:16;21.02;;;9.13;;
12114;SDS011;6121;49.810;6.418;2023-08-07T05:29:41;23.13;;;10.45;;
12114;SDS011;6121;49.810;6.418;2023-08-07T05:32:10;23.33;;;10.05;;
12114;SDS011;6121;49.810;6.418;2023-08-07T05:34:40;23.90;;;10.43;;
12114;SDS011;6121;49.810;6.418;2023-08-07T05:37:06;23.55;;;10.50;;
12114;SDS011;6121;49.810;6.418;2023-08-07T05:39:34;22.52;;;9.93;;
12114;SDS011;6121;49.810;6.418;2023-08-07T05:42:00;23.33;;;10.30;;
12114;SDS011;6121;49.810;6.418;2023-08-07T05:44:26;20.33;;;9.18;;
12114;SDS011;6121;49.810;6.418;2023-08-07T05:46:52;23.25;;;9.93;;
12114;SDS011;6121;49.810;6.418;2023-08-07T05:49:18;20.63;;;9.27;;
12114;SDS011;6121;49.810;6.418;2023-08-07T05:51:45;23.90;;;10.65;;
12114;SDS011;6121;49.810;6.418;2023-08-07T05:54:11;24.92;;;10.80;;
12114;SDS011;6121;49.810;6.418;2023-08-07T05:56:37;22.13;;;9.77;;
12114;SDS011;6121;49.810;6.418;2023-08-07T05:59:03;21.73;;;9.55;;
12114;SDS011;6121;49.810;6.418;2023-08-07T06:01:29;20.98;;;9.48;;
12114;SDS011;6121;49.810;6.418;2023-08-07T06:03:58;22.88;;;10.18;;
12114;SDS011;6121;49.810;6.418;2023-08-07T06:06:24;22.80;;;10.17;;
12114;SDS011;6121;49.810;6.418;2023-08-07T06:08:51;25.75;;;11.43;;
12114;SDS011;6121;49.810;6.418;2023-08-07T06:11:17;20.90;;;9.52;;
12114;SDS011;6121;49.810;6.418;2023-08-07T06:13:43;22.58;;;10.13;;
12114;SDS011;6121;49.810;6.418;2023-08-07T06:16:09;23.70;;;10.68;;
12114;SDS011;6121;49.810;6.418;2023-08-07T06:18:36;21.13;;;9.70;;
12114;SDS011;6121;49.810;6.418;2023-08-07T06:21:02;22.30;;;10.30;;
12114;SDS011;6121;49.810;6.418;2023-08-07T06:23:31;21.40;;;9.73;;
12114;SDS011;6121;49.810;6.418;2023-08-07T06:25:58;25.47;;;11.40;;
12114;SDS011;6121;49.810;6.418;2023-08-07T06:28:24;16.55;;;7.80;;
12114;SDS011;6121;49.810;6.418;2023-08-07T06:30:50;21.87;;;10.07;;
12114;SDS011;6121;49.810;6.418;2023-08-07T06:33:15;22.40;;;10.40;;
12114;SDS011;6121;49.810;6.418;2023-08-07T06:35:41;20.40;;;9.70;;
12114;SDS011;6121;49.810;6.418;2023-08-07T06:38:10;21.38;;;9.98;;
12114;SDS011;6121;49.810;6.418;2023-08-07T06:40:37;20.13;;;9.23;;
12114;SDS011;6121;49.810;6.418;2023-08-07T06:43:03;24.83;;;11.48;;
12114;SDS011;6121;49.810;6.418;2023-08-07T06:45:29;19.98;;;9.40;;
12114;SDS011;6121;49.810;6.418;2023-08-07T06:47:54;26.48;;;12.15;;
12114;SDS011;6121;49.810;6.418;2023-08-07T06:50:21;21.27;;;10.05;;
12114;SDS011;6121;49.810;6.418;2023-08-07T06:52:47;23.97;;;11.33;;
12114;SDS011;6121;49.810;6.418;2023-08-07T06:55:12;21.83;;;9.87;;
12114;SDS011;6121;49.810;6.418;2023-08-07T06:57:38;20.13;;;9.10;;
12114;SDS011;6121;49.810;6.418;2023-08-07T07:00:05;20.40;;;9.68;;
12114;SDS011;6121;49.810;6.418;2023-08-07T07:02:31;22.25;;;10.20;;
12114;SDS011;6121;49.810;6.418;2023-08-07T07:04:57;22.50;;;10.47;;
12114;SDS011;6121;49.810;6.418;2023-08-07T07:07:23;21.03;;;9.70;;
12114;SDS011;6121;49.810;6.418;2023-08-07T07:09:48;22.70;;;10.27;;
12114;SDS011;6121;49.810;6.418;2023-08-07T07:12:14;23.25;;;10.60;;
12114;SDS011;6121;49.810;6.418;2023-08-07T07:14:40;20.60;;;9.45;;
12114;SDS011;6121;49.810;6.418;2023-08-07T07:17:06;20.23;;;9.68;;
12114;SDS011;6121;49.810;6.418;2023-08-07T07:19:32;21.40;;;10.13;;
12114;SDS011;6121;49.810;6.418;2023-08-07T07:21:57;22.73;;;10.73;;
12114;SDS011;6121;49.810;6.418;2023-08-07T07:24:23;21.70;;;9.90;;
12114;SDS011;6121;49.810;6.418;2023-08-07T07:26:49;20.92;;;9.90;;
12114;SDS011;6121;49.810;6.418;2023-08-07T07:29:16;21.15;;;9.63;;
12114;SDS011;6121;49.810;6.418;2023-08-07T07:31:42;22.33;;;10.32;;
12114;SDS011;6121;49.810;6.418;2023-08-07T07:34:08;24.73;;;11.48;;
12114;SDS011;6121;49.810;6.418;2023-08-07T07:36:34;20.27;;;9.50;;
12114;SDS011;6121;49.810;6.418;2023-08-07T07:39:00;21.03;;;9.77;;
12114;SDS011;6121;49.810;6.418;2023-08-07T07:41:25;18.30;;;8.80;;
12114;SDS011;6121;49.810;6.418;2023-08-07T07:43:53;21.10;;;9.88;;
12114;SDS011;6121;49.810;6.418;2023-08-07T07:46:18;20.40;;;9.80;;
12114;SDS011;6121;49.810;6.418;2023-08-07T07:48:44;23.95;;;11.05;;
12114;SDS011;6121;49.810;6.418;2023-08-07T07:51:10;23.40;;;11.00;;
12114;SDS011;6121;49.810;6.418;2023-08-07T07:53:36;23.33;;;10.93;;
12114;SDS011;6121;49.810;6.418;2023-08-07T07:56:02;22.80;;;10.60;;
12114;SDS011;6121;49.810;6.418;2023-08-07T07:58:27;21.67;;;10.15;;
12114;SDS011;6121;49.810;6.418;2023-08-07T08:00:53;23.50;;;11.00;;
12114;SDS011;6121;49.810;6.418;2023-08-07T08:03:20;24.75;;;11.57;;
12114;SDS011;6121;49.810;6.418;2023-08-07T08:05:48;21.38;;;9.75;;
12114;SDS011;6121;49.810;6.418;2023-08-07T08:08:15;25.52;;;12.00;;
12114;SDS011;6121;49.810;6.418;2023-08-07T08:10:42;20.00;;;9.32;;
12114;SDS011;6121;49.810;6.418;2023-08-07T08:13:09;25.13;;;11.73;;
12114;SDS011;6121;49.810;6.418;2023-08-07T08:15:36;23.05;;;10.50;;
12114;SDS011;6121;49.810;6.418;2023-08-07T08:18:01;22.65;;;10.48;;
12114;SDS011;6121;49.810;6.418;2023-08-07T08:20:27;21.20;;;10.18;;
12114;SDS011;6121;49.810;6.418;2023-08-07T08:22:55;23.42;;;11.18;;
12114;SDS011;6121;49.810;6.418;2023-08-07T08:25:20;21.58;;;10.23;;
12114;SDS011;6121;49.810;6.418;2023-08-07T08:27:46;21.00;;;9.80;;
12114;SDS011;6121;49.810;6.418;2023-08-07T08:30:12;23.20;;;10.80;;
12114;SDS011;6121;49.810;6.418;2023-08-07T08:32:38;24.50;;;11.23;;
12114;SDS011;6121;49.810;6.418;2023-08-07T08:35:04;21.97;;;10.10;;
12114;SDS011;6121;49.810;6.418;2023-08-07T08:37:31;22.38;;;10.65;;
12114;SDS011;6121;49.810;6.418;2023-08-07T08:39:56;22.67;;;10.73;;
12114;SDS011;6121;49.810;6.418;2023-08-07T08:42:22;22.35;;;10.65;;
12114;SDS011;6121;49.810;6.418;2023-08-07T08:44:52;22.47;;;10.43;;
12114;SDS011;6121;49.810;6.418;2023-08-07T08:47:25;21.23;;;9.88;;
12114;SDS011;6121;49.810;6.418;2023-08-07T08:49:57;20.25;;;9.73;;
12114;SDS011;6121;49.810;6.418;2023-08-07T08:52:28;23.00;;;11.07;;
12114;SDS011;6121;49.810;6.418;2023-08-07T08:54:56;30.35;;;12.13;;
12114;SDS011;6121;49.810;6.418;2023-08-07T08:57:22;33.55;;;13.05;;
12114;SDS011;6121;49.810;6.418;2023-08-07T08:59:51;27.88;;;10.95;;
12114;SDS011;6121;49.810;6.418;2023-08-07T09:02:17;28.50;;;11.43;;
12114;SDS011;6121;49.810;6.418;2023-08-07T09:04:43;28.30;;;11.02;;
12114;SDS011;6121;49.810;6.418;2023-08-07T09:07:10;26.02;;;10.75;;
12114;SDS011;6121;49.810;6.418;2023-08-07T09:09:42;32.78;;;12.75;;
12114;SDS011;6121;49.810;6.418;2023-08-07T09:12:12;31.27;;;12.35;;
12114;SDS011;6121;49.810;6.418;2023-08-07T09:14:45;26.95;;;10.82;;
12114;SDS011;6121;49.810;6.418;2023-08-07T09:17:15;26.70;;;10.85;;
12114;SDS011;6121;49.810;6.418;2023-08-07T09:19:42;27.70;;;11.23;;
12114;SDS011;6121;49.810;6.418;2023-08-07T09:22:08;28.70;;;11.55;;
12114;SDS011;6121;49.810;6.418;2023-08-07T09:24:34;31.73;;;13.23;;
12114;SDS011;6121;49.810;6.418;2023-08-07T09:27:00;30.02;;;12.52;;
12114;SDS011;6121;49.810;6.418;2023-08-07T09:29:25;28.43;;;11.77;;
12114;SDS011;6121;49.810;6.418;2023-08-07T09:31:53;29.40;;;11.95;;
12114;SDS011;6121;49.810;6.418;2023-08-07T09:34:20;31.73;;;12.68;;
12114;SDS011;6121;49.810;6.418;2023-08-07T09:36:46;31.58;;;12.82;;
12114;SDS011;6121;49.810;6.418;2023-08-07T09:39:11;28.90;;;12.43;;
12114;SDS011;6121;49.810;6.418;2023-08-07T09:41:37;28.48;;;11.90;;
12114;SDS011;6121;49.810;6.418;2023-08-07T09:44:07;29.73;;;12.43;;
12114;SDS011;6121;49.810;6.418;2023-08-07T09:46:40;31.50;;;13.45;;
12114;SDS011;6121;49.810;6.418;2023-08-07T09:49:07;27.73;;;11.73;;
12114;SDS011;6121;49.810;6.418;2023-08-07T09:51:40;28.58;;;12.10;;
12114;SDS011;6121;49.810;6.418;2023-08-07T09:54:08;32.08;;;13.48;;
12114;SDS011;6121;49.810;6.418;2023-08-07T09:56:35;29.48;;;11.70;;
12114;SDS011;6121;49.810;6.418;2023-08-07T09:59:01;25.42;;;10.80;;
12114;SDS011;6121;49.810;6.418;2023-08-07T10:01:27;26.80;;;11.35;;
12114;SDS011;6121;49.810;6.418;2023-08-07T10:03:53;33.00;;;13.85;;
12114;SDS011;6121;49.810;6.418;2023-08-07T10:06:20;29.50;;;12.07;;
12114;SDS011;6121;49.810;6.418;2023-08-07T10:08:46;30.27;;;12.90;;
12114;SDS011;6121;49.810;6.418;2023-08-07T10:11:12;25.33;;;11.30;;
12114;SDS011;6121;49.810;6.418;2023-08-07T10:13:40;32.60;;;14.05;;
12114;SDS011;6121;49.810;6.418;2023-08-07T10:16:06;24.63;;;11.15;;
12114;SDS011;6121;49.810;6.418;2023-08-07T10:18:33;31.35;;;13.85;;
12114;SDS011;6121;49.810;6.418;2023-08-07T10:21:00;28.08;;;11.82;;
12114;SDS011;6121;49.810;6.418;2023-08-07T10:23:27;33.27;;;14.37;;
12114;SDS011;6121;49.810;6.418;2023-08-07T10:25:53;28.88;;;12.15;;
12114;SDS011;6121;49.810;6.418;2023-08-07T10:28:20;29.20;;;12.05;;
12114;SDS011;6121;49.810;6.418;2023-08-07T10:30:49;27.60;;;11.57;;
12114;SDS011;6121;49.810;6.418;2023-08-07T10:33:16;28.77;;;12.40;;
12114;SDS011;6121;49.810;6.418;2023-08-07T10:35:46;26.38;;;11.20;;
12114;SDS011;6121;49.810;6.418;2023-08-07T10:38:18;26.15;;;11.07;;
12114;SDS011;6121;49.810;6.418;2023-08-07T10:40:58;25.27;;;10.35;;
12114;SDS011;6121;49.810;6.418;2023-08-07T10:43:32;28.17;;;11.80;;
12114;SDS011;6121;49.810;6.418;2023-08-07T10:46:06;25.50;;;10.43;;
12114;SDS011;6121;49.810;6.418;2023-08-07T10:48:38;24.13;;;10.05;;
12114;SDS011;6121;49.810;6.418;2023-08-07T10:51:04;23.80;;;9.98;;
12114;SDS011;6121;49.810;6.418;2023-08-07T10:53:31;27.17;;;11.18;;
12114;SDS011;6121;49.810;6.418;2023-08-07T10:56:02;29.85;;;12.10;;
12114;SDS011;6121;49.810;6.418;2023-08-07T10:58:31;24.07;;;10.07;;
12114;SDS011;6121;49.810;6.418;2023-08-07T11:03:58;28.88;;;12.00;;
12114;SDS011;6121;49.810;6.418;2023-08-07T11:06:27;26.60;;;11.13;;
12114;SDS011;6121;49.810;6.418;2023-08-07T11:08:57;26.42;;;10.68;;
12114;SDS011;6121;49.810;6.418;2023-08-07T11:11:37;22.80;;;9.40;;
12114;SDS011;6121;49.810;6.418;2023-08-07T11:14:07;31.98;;;12.90;;
12114;SDS011;6121;49.810;6.418;2023-08-07T11:16:37;27.75;;;11.15;;
12114;SDS011;6121;49.810;6.418;2023-08-07T11:19:03;32.47;;;12.98;;
12114;SDS011;6121;49.810;6.418;2023-08-07T11:21:33;28.23;;;11.35;;
12114;SDS011;6121;49.810;6.418;2023-08-07T11:23:59;31.85;;;13.10;;
12114;SDS011;6121;49.810;6.418;2023-08-07T11:26:25;26.00;;;10.75;;
12114;SDS011;6121;49.810;6.418;2023-08-07T11:28:51;27.60;;;11.23;;
12114;SDS011;6121;49.810;6.418;2023-08-07T11:31:18;32.03;;;12.93;;
12114;SDS011;6121;49.810;6.418;2023-08-07T11:33:44;32.95;;;13.27;;
12114;SDS011;6121;49.810;6.418;2023-08-07T11:36:11;28.45;;;11.25;;
12114;SDS011;6121;49.810;6.418;2023-08-07T11:38:38;25.45;;;10.35;;
12114;SDS011;6121;49.810;6.418;2023-08-07T11:41:05;28.77;;;11.50;;
12114;SDS011;6121;49.810;6.418;2023-08-07T11:43:33;29.55;;;11.63;;
12114;SDS011;6121;49.810;6.418;2023-08-07T11:46:03;31.33;;;12.55;;
12114;SDS011;6121;49.810;6.418;2023-08-07T11:48:31;28.25;;;11.35;;
12114;SDS011;6121;49.810;6.418;2023-08-07T11:50:58;27.70;;;10.87;;
12114;SDS011;6121;49.810;6.418;2023-08-07T11:53:25;31.10;;;12.48;;
12114;SDS011;6121;49.810;6.418;2023-08-07T11:55:52;27.65;;;11.00;;
12114;SDS011;6121;49.810;6.418;2023-08-07T11:58:34;27.30;;;11.00;;
12114;SDS011;6121;49.810;6.418;2023-08-07T12:01:11;24.08;;;9.85;;
12114;SDS011;6121;49.810;6.418;2023-08-07T12:03:38;27.00;;;10.82;;
12114;SDS011;6121;49.810;6.418;2023-08-07T12:06:08;18.20;;;7.72;;
12114;SDS011;6121;49.810;6.418;2023-08-07T12:08:35;16.27;;;6.97;;
12114;SDS011;6121;49.810;6.418;2023-08-07T12:11:03;19.30;;;8.27;;
12114;SDS011;6121;49.810;6.418;2023-08-07T12:13:30;20.60;;;8.68;;
12114;SDS011;6121;49.810;6.418;2023-08-07T12:15:57;15.80;;;6.87;;
12114;SDS011;6121;49.810;6.418;2023-08-07T12:18:24;28.60;;;12.18;;
12114;SDS011;6121;49.810;6.418;2023-08-07T12:20:52;45.88;;;19.80;;
12114;SDS011;6121;49.810;6.418;2023-08-07T12:23:21;50.78;;;21.23;;
12114;SDS011;6121;49.810;6.418;2023-08-07T12:25:47;36.40;;;14.93;;
12114;SDS011;6121;49.810;6.418;2023-08-07T12:28:14;39.72;;;16.60;;
12114;SDS011;6121;49.810;6.418;2023-08-07T12:30:42;32.03;;;13.40;;
12114;SDS011;6121;49.810;6.418;2023-08-07T12:33:13;37.22;;;15.27;;
12114;SDS011;6121;49.810;6.418;2023-08-07T12:35:39;35.67;;;14.20;;
12114;SDS011;6121;49.810;6.418;2023-08-07T12:38:06;38.25;;;15.90;;
12114;SDS011;6121;49.810;6.418;2023-08-07T12:40:32;34.08;;;13.60;;
12114;SDS011;6121;49.810;6.418;2023-08-07T12:42:58;28.23;;;11.55;;
12114;SDS011;6121;49.810;6.418;2023-08-07T12:45:24;30.57;;;12.37;;
12114;SDS011;6121;49.810;6.418;2023-08-07T12:47:50;31.25;;;12.73;;
12114;SDS011;6121;49.810;6.418;2023-08-07T12:50:16;32.33;;;13.20;;
12114;SDS011;6121;49.810;6.418;2023-08-07T12:52:42;35.85;;;14.63;;
12114;SDS011;6121;49.810;6.418;2023-08-07T12:55:08;34.70;;;14.23;;
12114;SDS011;6121;49.810;6.418;2023-08-07T12:57:35;31.80;;;13.10;;
12114;SDS011;6121;49.810;6.418;2023-08-07T13:00:00;32.42;;;13.38;;
12114;SDS011;6121;49.810;6.418;2023-08-07T13:02:27;35.63;;;14.60;;
12114;SDS011;6121;49.810;6.418;2023-08-07T13:04:53;35.17;;;14.60;;
12114;SDS011;6121;49.810;6.418;2023-08-07T13:07:19;39.08;;;16.02;;
12114;SDS011;6121;49.810;6.418;2023-08-07T13:09:45;34.20;;;13.97;;
12114;SDS011;6121;49.810;6.418;2023-08-07T13:12:11;34.90;;;14.25;;
12114;SDS011;6121;49.810;6.418;2023-08-07T13:14:37;35.83;;;14.43;;
12114;SDS011;6121;49.810;6.418;2023-08-07T13:17:03;38.38;;;15.75;;
12114;SDS011;6121;49.810;6.418;2023-08-07T13:19:29;43.13;;;17.45;;
12114;SDS011;6121;49.810;6.418;2023-08-07T13:21:55;35.40;;;14.27;;
12114;SDS011;6121;49.810;6.418;2023-08-07T13:24:21;41.33;;;16.60;;
12114;SDS011;6121;49.810;6.418;2023-08-07T13:26:47;33.92;;;13.90;;
12114;SDS011;6121;49.810;6.418;2023-08-07T13:29:13;43.08;;;17.50;;
12114;SDS011;6121;49.810;6.418;2023-08-07T13:31:40;35.20;;;14.52;;
12114;SDS011;6121;49.810;6.418;2023-08-07T13:34:12;39.08;;;15.82;;
12114;SDS011;6121;49.810;6.418;2023-08-07T13:36:38;39.97;;;15.90;;
12114;SDS011;6121;49.810;6.418;2023-08-07T13:39:04;45.08;;;17.73;;
12114;SDS011;6121;49.810;6.418;2023-08-07T13:41:31;33.13;;;12.97;;
12114;SDS011;6121;49.810;6.418;2023-08-07T13:43:58;37.95;;;14.75;;
12114;SDS011;6121;49.810;6.418;2023-08-07T13:46:24;38.17;;;15.23;;
12114;SDS011;6121;49.810;6.418;2023-08-07T13:48:51;42.17;;;16.95;;
12114;SDS011;6121;49.810;6.418;2023-08-07T13:51:16;38.33;;;15.20;;
12114;SDS011;6121;49.810;6.418;2023-08-07T13:53:45;37.47;;;14.80;;
12114;SDS011;6121;49.810;6.418;2023-08-07T13:56:11;33.90;;;13.27;;
12114;SDS011;6121;49.810;6.418;2023-08-07T13:58:41;46.72;;;18.38;;
12114;SDS011;6121;49.810;6.418;2023-08-07T14:01:07;37.53;;;15.07;;
12114;SDS011;6121;49.810;6.418;2023-08-07T14:03:33;38.13;;;15.00;;
12114;SDS011;6121;49.810;6.418;2023-08-07T14:05:59;37.90;;;14.80;;
12114;SDS011;6121;49.810;6.418;2023-08-07T14:08:26;48.67;;;18.70;;
12114;SDS011;6121;49.810;6.418;2023-08-07T14:10:52;33.35;;;13.15;;
12114;SDS011;6121;49.810;6.418;2023-08-07T14:13:17;36.50;;;14.65;;
12114;SDS011;6121;49.810;6.418;2023-08-07T14:15:43;36.55;;;14.18;;
12114;SDS011;6121;49.810;6.418;2023-08-07T14:18:09;39.08;;;15.52;;
12114;SDS011;6121;49.810;6.418;2023-08-07T14:20:40;34.75;;;13.82;;
12114;SDS011;6121;49.810;6.418;2023-08-07T14:23:06;38.90;;;15.23;;
12114;SDS011;6121;49.810;6.418;2023-08-07T14:25:31;34.03;;;13.48;;
12114;SDS011;6121;49.810;6.418;2023-08-07T14:27:57;34.45;;;13.30;;
12114;SDS011;6121;49.810;6.418;2023-08-07T14:30:24;38.85;;;15.25;;
12114;SDS011;6121;49.810;6.418;2023-08-07T14:32:50;39.47;;;15.02;;
12114;SDS011;6121;49.810;6.418;2023-08-07T14:35:16;36.75;;;14.30;;
12114;SDS011;6121;49.810;6.418;2023-08-07T14:37:42;36.20;;;14.20;;
12114;SDS011;6121;49.810;6.418;2023-08-07T14:40:09;33.83;;;13.25;;
12114;SDS011;6121;49.810;6.418;2023-08-07T14:42:35;35.55;;;14.05;;
12114;SDS011;6121;49.810;6.418;2023-08-07T14:45:00;37.27;;;14.63;;
12114;SDS011;6121;49.810;6.418;2023-08-07T14:47:26;43.00;;;16.88;;
12114;SDS011;6121;49.810;6.418;2023-08-07T14:49:52;35.40;;;13.70;;
12114;SDS011;6121;49.810;6.418;2023-08-07T14:52:18;40.03;;;15.90;;